sensor_id;sensor_type;location;lat;lon;timestamp;P1;durP1;ratioP1;P2;durP2;ratioP2
57535;SDS011;43361;49.790;8.960;2023-04-01T00:02:28;3.08;;;0.60;;
57535;SDS011;43361;49.790;8.960;2023-04-01T00:22:29;1.90;;;0.60;;
57535;SDS011;43361;49.790;8.960;2023-04-01T00:32:30;1.10;;;0.40;;
57535;SDS011;43361;49.790;8.960;2023-04-01T00:42:32;1.67;;;0.52;;
57535;SDS011;43361;49.790;8.960;2023-04-01T00:52:33;1.00;;;0.50;;
57535;SDS011;43361;49.790;8.960;2023-04-01T01:02:35;3.22;;;0.40;;
57535;SDS011;43361;49.790;8.960;2023-04-01T01:12:38;1.35;;;0.50;;
57535;SDS011;43361;49.790;8.960;2023-04-01T01:22:58;1.70;;;0.60;;
57535;SDS011;43361;49.790;8.960;2023-04-01T01:33:11;2.20;;;0.50;;
57535;SDS011;43361;49.790;8.960;2023-04-01T01:43:16;1.13;;;0.40;;
57535;SDS011;43361;49.790;8.960;2023-04-01T01:53:18;1.42;;;0.40;;
57535;SDS011;43361;49.790;8.960;2023-04-01T02:13:21;1.02;;;0.43;;
57535;SDS011;43361;49.790;8.960;2023-04-01T02:23:24;1.02;;;0.50;;
57535;SDS011;43361;49.790;8.960;2023-04-01T02:33:27;1.17;;;0.32;;
57535;SDS011;43361;49.790;8.960;2023-04-01T02:43:28;0.70;;;0.22;;
57535;SDS011;43361;49.790;8.960;2023-04-01T03:03:30;0.90;;;0.30;;
57535;SDS011;43361;49.790;8.960;2023-04-01T03:13:31;1.02;;;0.30;;
57535;SDS011;43361;49.790;8.960;2023-04-01T03:23:32;1.27;;;0.55;;
57535;SDS011;43361;49.790;8.960;2023-04-01T03:33:33;1.60;;;0.40;;
57535;SDS011;43361;49.790;8.960;2023-04-01T03:43:35;1.03;;;0.50;;
57535;SDS011;43361;49.790;8.960;2023-04-01T03:53:35;1.23;;;0.50;;
57535;SDS011;43361;49.790;8.960;2023-04-01T04:03:37;0.47;;;0.20;;
57535;SDS011;43361;49.790;8.960;2023-04-01T04:13:37;0.68;;;0.20;;
57535;SDS011;43361;49.790;8.960;2023-04-01T04:33:39;1.57;;;0.30;;
57535;SDS011;43361;49.790;8.960;2023-04-01T04:43:40;1.20;;;0.40;;
57535;SDS011;43361;49.790;8.960;2023-04-01T04:53:42;0.70;;;0.20;;
57535;SDS011;43361;49.790;8.960;2023-04-01T05:03:43;0.88;;;0.25;;
57535;SDS011;43361;49.790;8.960;2023-04-01T05:13:45;3.40;;;0.20;;
57535;SDS011;43361;49.790;8.960;2023-04-01T05:23:45;2.80;;;0.50;;
57535;SDS011;43361;49.790;8.960;2023-04-01T05:33:47;3.92;;;0.82;;
57535;SDS011;43361;49.790;8.960;2023-04-01T05:43:48;3.72;;;0.88;;
57535;SDS011;43361;49.790;8.960;2023-04-01T06:03:49;39.97;;;16.93;;
57535;SDS011;43361;49.790;8.960;2023-04-01T06:13:54;47.58;;;20.27;;
57535;SDS011;43361;49.790;8.960;2023-04-01T06:24:04;52.80;;;20.17;;
57535;SDS011;43361;49.790;8.960;2023-04-01T06:34:17;41.10;;;14.35;;
57535;SDS011;43361;49.790;8.960;2023-04-01T06:44:26;30.23;;;11.93;;
57535;SDS011;43361;49.790;8.960;2023-04-01T06:54:29;31.80;;;12.43;;
57535;SDS011;43361;49.790;8.960;2023-04-01T07:04:33;39.65;;;11.50;;
57535;SDS011;43361;49.790;8.960;2023-04-01T07:14:36;23.27;;;10.65;;
57535;SDS011;43361;49.790;8.960;2023-04-01T07:24:39;18.33;;;9.30;;
57535;SDS011;43361;49.790;8.960;2023-04-01T07:34:44;20.23;;;8.75;;
57535;SDS011;43361;49.790;8.960;2023-04-01T07:44:49;19.00;;;8.50;;
57535;SDS011;43361;49.790;8.960;2023-04-01T07:54:53;17.23;;;6.90;;
57535;SDS011;43361;49.790;8.960;2023-04-01T08:05:00;19.17;;;7.68;;
57535;SDS011;43361;49.790;8.960;2023-04-01T08:15:06;17.73;;;6.75;;
57535;SDS011;43361;49.790;8.960;2023-04-01T08:25:13;16.90;;;6.85;;
57535;SDS011;43361;49.790;8.960;2023-04-01T08:35:17;16.13;;;6.22;;
57535;SDS011;43361;49.790;8.960;2023-04-01T08:45:21;12.23;;;5.43;;
57535;SDS011;43361;49.790;8.960;2023-04-01T08:55:31;15.38;;;5.90;;
57535;SDS011;43361;49.790;8.960;2023-04-01T09:05:39;15.18;;;5.68;;
57535;SDS011;43361;49.790;8.960;2023-04-01T09:15:48;12.20;;;5.13;;
57535;SDS011;43361;49.790;8.960;2023-04-01T09:36:12;12.10;;;4.53;;
57535;SDS011;43361;49.790;8.960;2023-04-01T09:46:19;12.77;;;4.65;;
57535;SDS011;43361;49.790;8.960;2023-04-01T09:56:30;13.60;;;4.50;;
57535;SDS011;43361;49.790;8.960;2023-04-01T10:17:03;63.00;;;17.42;;
57535;SDS011;43361;49.790;8.960;2023-04-01T10:37:42;49.67;;;16.55;;
57535;SDS011;43361;49.790;8.960;2023-04-01T10:47:55;42.17;;;13.43;;
57535;SDS011;43361;49.790;8.960;2023-04-01T11:08:27;31.55;;;10.23;;
57535;SDS011;43361;49.790;8.960;2023-04-01T11:28:57;29.88;;;9.15;;
57535;SDS011;43361;49.790;8.960;2023-04-01T11:39:11;24.75;;;8.10;;
57535;SDS011;43361;49.790;8.960;2023-04-01T11:49:19;24.67;;;8.02;;
57535;SDS011;43361;49.790;8.960;2023-04-01T11:59:35;23.20;;;7.55;;
57535;SDS011;43361;49.790;8.960;2023-04-01T12:09:46;30.30;;;8.00;;
57535;SDS011;43361;49.790;8.960;2023-04-01T12:19:51;21.75;;;7.68;;
57535;SDS011;43361;49.790;8.960;2023-04-01T12:30:02;22.10;;;7.20;;
57535;SDS011;43361;49.790;8.960;2023-04-01T12:50:27;15.05;;;5.13;;
57535;SDS011;43361;49.790;8.960;2023-04-01T13:00:38;10.02;;;4.55;;
57535;SDS011;43361;49.790;8.960;2023-04-01T13:10:44;21.00;;;4.85;;
57535;SDS011;43361;49.790;8.960;2023-04-01T13:20:54;9.38;;;4.30;;
57535;SDS011;43361;49.790;8.960;2023-04-01T13:30:59;11.18;;;3.70;;
57535;SDS011;43361;49.790;8.960;2023-04-01T13:41:05;9.73;;;4.07;;
57535;SDS011;43361;49.790;8.960;2023-04-01T13:51:11;13.80;;;4.30;;
57535;SDS011;43361;49.790;8.960;2023-04-01T14:01:15;8.85;;;3.42;;
57535;SDS011;43361;49.790;8.960;2023-04-01T14:11:22;9.63;;;3.15;;
57535;SDS011;43361;49.790;8.960;2023-04-01T14:21:30;13.77;;;4.50;;
57535;SDS011;43361;49.790;8.960;2023-04-01T14:31:36;11.57;;;3.00;;
57535;SDS011;43361;49.790;8.960;2023-04-01T14:41:42;21.75;;;3.85;;
57535;SDS011;43361;49.790;8.960;2023-04-01T14:51:46;18.08;;;3.22;;
57535;SDS011;43361;49.790;8.960;2023-04-01T15:01:50;9.63;;;2.70;;
57535;SDS011;43361;49.790;8.960;2023-04-01T15:11:54;7.15;;;2.78;;
57535;SDS011;43361;49.790;8.960;2023-04-01T15:22:04;10.43;;;2.45;;
57535;SDS011;43361;49.790;8.960;2023-04-01T15:32:07;12.07;;;2.58;;
57535;SDS011;43361;49.790;8.960;2023-04-01T15:52:35;9.18;;;2.38;;
57535;SDS011;43361;49.790;8.960;2023-04-01T16:02:43;4.30;;;1.73;;
57535;SDS011;43361;49.790;8.960;2023-04-01T16:12:49;4.32;;;1.67;;
57535;SDS011;43361;49.790;8.960;2023-04-01T16:22:54;5.72;;;1.70;;
57535;SDS011;43361;49.790;8.960;2023-04-01T16:32:59;8.52;;;2.10;;
57535;SDS011;43361;49.790;8.960;2023-04-01T16:43:05;7.85;;;1.95;;
57535;SDS011;43361;49.790;8.960;2023-04-01T16:53:10;7.68;;;1.65;;
57535;SDS011;43361;49.790;8.960;2023-04-01T17:03:16;10.77;;;2.00;;
57535;SDS011;43361;49.790;8.960;2023-04-01T17:13:31;5.90;;;1.80;;
57535;SDS011;43361;49.790;8.960;2023-04-01T17:23:34;7.72;;;1.65;;
57535;SDS011;43361;49.790;8.960;2023-04-01T17:33:41;5.65;;;1.40;;
57535;SDS011;43361;49.790;8.960;2023-04-01T17:43:44;6.03;;;1.30;;
57535;SDS011;43361;49.790;8.960;2023-04-01T17:53:50;6.45;;;1.35;;
57535;SDS011;43361;49.790;8.960;2023-04-01T18:04:04;5.50;;;1.30;;
57535;SDS011;43361;49.790;8.960;2023-04-01T18:24:32;3.95;;;1.15;;
57535;SDS011;43361;49.790;8.960;2023-04-01T18:34:38;6.03;;;1.40;;
57535;SDS011;43361;49.790;8.960;2023-04-01T18:44:44;5.63;;;1.42;;
57535;SDS011;43361;49.790;8.960;2023-04-01T18:54:47;8.05;;;1.55;;
57535;SDS011;43361;49.790;8.960;2023-04-01T19:04:52;3.28;;;1.40;;
57535;SDS011;43361;49.790;8.960;2023-04-01T19:25:22;5.07;;;1.30;;
57535;SDS011;43361;49.790;8.960;2023-04-01T19:35:26;2.65;;;0.85;;
57535;SDS011;43361;49.790;8.960;2023-04-01T19:45:32;3.33;;;1.10;;
57535;SDS011;43361;49.790;8.960;2023-04-01T19:55:35;3.88;;;1.00;;
57535;SDS011;43361;49.790;8.960;2023-04-01T20:05:47;15.15;;;1.20;;
57535;SDS011;43361;49.790;8.960;2023-04-01T20:15:55;2.95;;;1.00;;
57535;SDS011;43361;49.790;8.960;2023-04-01T20:26:01;4.55;;;0.95;;
57535;SDS011;43361;49.790;8.960;2023-04-01T20:36:06;3.08;;;1.00;;
57535;SDS011;43361;49.790;8.960;2023-04-01T20:46:14;2.63;;;1.10;;
57535;SDS011;43361;49.790;8.960;2023-04-01T20:56:19;2.40;;;0.90;;
57535;SDS011;43361;49.790;8.960;2023-04-01T21:06:33;2.75;;;0.82;;
57535;SDS011;43361;49.790;8.960;2023-04-01T21:16:41;3.60;;;0.88;;
57535;SDS011;43361;49.790;8.960;2023-04-01T21:26:47;1.95;;;0.70;;
57535;SDS011;43361;49.790;8.960;2023-04-01T21:36:56;1.48;;;0.63;;
57535;SDS011;43361;49.790;8.960;2023-04-01T22:07:34;2.50;;;0.80;;
57535;SDS011;43361;49.790;8.960;2023-04-01T22:17:38;1.67;;;0.77;;
57535;SDS011;43361;49.790;8.960;2023-04-01T22:27:44;1.83;;;0.50;;
57535;SDS011;43361;49.790;8.960;2023-04-01T22:37:48;2.33;;;0.80;;
57535;SDS011;43361;49.790;8.960;2023-04-01T22:47:53;1.73;;;0.70;;
57535;SDS011;43361;49.790;8.960;2023-04-01T22:57:57;2.95;;;0.63;;
57535;SDS011;43361;49.790;8.960;2023-04-01T23:08:19;1.50;;;0.50;;
57535;SDS011;43361;49.790;8.960;2023-04-01T23:18:21;1.58;;;0.47;;
57535;SDS011;43361;49.790;8.960;2023-04-01T23:28:30;3.47;;;0.65;;
57535;SDS011;43361;49.790;8.960;2023-04-01T23:38:37;0.70;;;0.40;;
57535;SDS011;43361;49.790;8.960;2023-04-01T23:48:40;1.52;;;0.60;;
57535;SDS011;43361;49.790;8.960;2023-04-01T23:58:42;1.73;;;0.70;;
